sensor_id;sensor_type;location;lat;lon;timestamp;pressure;altitude;pressure_sealevel;temperature;humidity
9695;BME280;4690;52.422;13.486;2023-12-29T00:09:53;100677.03;;;8.23;81.51
9695;BME280;4690;52.422;13.486;2023-12-29T00:12:19;100673.28;;;8.04;82.14
9695;BME280;4690;52.422;13.486;2023-12-29T00:14:45;100676.56;;;8.32;80.70
9695;BME280;4690;52.422;13.486;2023-12-29T00:17:10;100680.78;;;8.28;80.59
9695;BME280;4690;52.422;13.486;2023-12-29T00:19:36;100680.56;;;8.37;80.03
9695;BME280;4690;52.422;13.486;2023-12-29T00:22:02;100677.44;;;8.40;79.56
9695;BME280;4690;52.422;13.486;2023-12-29T00:24:29;100668.81;;;8.16;80.78
9695;BME280;4690;52.422;13.486;2023-12-29T00:26:57;100662.34;;;8.17;80.97
9695;BME280;4690;52.422;13.486;2023-12-29T00:29:24;100658.72;;;8.30;80.40
9695;BME280;4690;52.422;13.486;2023-12-29T00:31:50;100659.19;;;8.20;80.82
9695;BME280;4690;52.422;13.486;2023-12-29T00:34:15;100659.75;;;8.36;80.42
9695;BME280;4690;52.422;13.486;2023-12-29T00:36:41;100657.88;;;8.29;79.98
9695;BME280;4690;52.422;13.486;2023-12-29T00:39:07;100650.56;;;8.23;80.06
9695;BME280;4690;52.422;13.486;2023-12-29T00:41:32;100660.22;;;8.26;80.02
9695;BME280;4690;52.422;13.486;2023-12-29T00:43:58;100656.44;;;8.34;79.68
9695;BME280;4690;52.422;13.486;2023-12-29T00:46:24;100656.19;;;8.48;79.60
9695;BME280;4690;52.422;13.486;2023-12-29T00:48:50;100651.75;;;8.54;78.55
9695;BME280;4690;52.422;13.486;2023-12-29T00:51:15;100649.22;;;8.52;79.28
9695;BME280;4690;52.422;13.486;2023-12-29T00:53:41;100640.59;;;8.62;78.59
9695;BME280;4690;52.422;13.486;2023-12-29T00:56:11;100643.59;;;8.41;78.92
9695;BME280;4690;52.422;13.486;2023-12-29T00:58:37;100638.53;;;8.44;78.73
9695;BME280;4690;52.422;13.486;2023-12-29T01:01:03;100643.97;;;8.58;77.94
9695;BME280;4690;52.422;13.486;2023-12-29T01:03:29;100640.34;;;8.70;77.72
9695;BME280;4690;52.422;13.486;2023-12-29T01:05:54;100648.19;;;8.53;78.19
9695;BME280;4690;52.422;13.486;2023-12-29T01:08:20;100640.00;;;8.53;78.26
9695;BME280;4690;52.422;13.486;2023-12-29T01:10:46;100629.88;;;8.61;78.16
9695;BME280;4690;52.422;13.486;2023-12-29T01:13:11;100633.38;;;8.74;77.31
9695;BME280;4690;52.422;13.486;2023-12-29T01:15:37;100630.44;;;8.76;77.34
9695;BME280;4690;52.422;13.486;2023-12-29T01:18:03;100636.94;;;8.82;77.23
9695;BME280;4690;52.422;13.486;2023-12-29T01:20:29;100625.63;;;8.71;77.10
9695;BME280;4690;52.422;13.486;2023-12-29T01:22:55;100627.56;;;8.58;78.21
9695;BME280;4690;52.422;13.486;2023-12-29T01:25:20;100626.91;;;8.69;77.67
9695;BME280;4690;52.422;13.486;2023-12-29T01:27:49;100619.47;;;8.83;77.43
9695;BME280;4690;52.422;13.486;2023-12-29T01:30:15;100619.09;;;8.72;77.84
9695;BME280;4690;52.422;13.486;2023-12-29T01:32:40;100621.03;;;8.65;77.93
9695;BME280;4690;52.422;13.486;2023-12-29T01:35:07;100613.03;;;8.70;78.04
9695;BME280;4690;52.422;13.486;2023-12-29T01:37:32;100607.31;;;8.79;77.49
9695;BME280;4690;52.422;13.486;2023-12-29T01:39:59;100606.66;;;8.83;77.27
9695;BME280;4690;52.422;13.486;2023-12-29T01:42:25;100588.19;;;8.79;77.20
9695;BME280;4690;52.422;13.486;2023-12-29T01:44:50;100593.72;;;8.65;77.67
9695;BME280;4690;52.422;13.486;2023-12-29T01:47:20;100589.22;;;8.78;77.48
9695;BME280;4690;52.422;13.486;2023-12-29T01:49:49;100587.78;;;8.75;77.30
9695;BME280;4690;52.422;13.486;2023-12-29T01:52:17;100589.53;;;8.94;77.10
9695;BME280;4690;52.422;13.486;2023-12-29T01:54:46;100577.41;;;8.90;76.84
9695;BME280;4690;52.422;13.486;2023-12-29T01:57:14;100575.19;;;8.74;77.95
9695;BME280;4690;52.422;13.486;2023-12-29T01:59:40;100565.91;;;8.75;77.63
9695;BME280;4690;52.422;13.486;2023-12-29T02:02:07;100561.06;;;8.77;77.37
9695;BME280;4690;52.422;13.486;2023-12-29T02:04:33;100561.72;;;8.79;77.22
9695;BME280;4690;52.422;13.486;2023-12-29T02:06:59;100560.50;;;8.68;77.84
9695;BME280;4690;52.422;13.486;2023-12-29T02:09:25;100560.50;;;8.68;77.76
9695;BME280;4690;52.422;13.486;2023-12-29T02:11:51;100554.97;;;8.82;77.46
9695;BME280;4690;52.422;13.486;2023-12-29T02:14:19;100554.84;;;8.95;76.97
9695;BME280;4690;52.422;13.486;2023-12-29T02:17:10;100548.81;;;8.86;77.18
9695;BME280;4690;52.422;13.486;2023-12-29T02:19:42;100555.22;;;8.73;77.15
9695;BME280;4690;52.422;13.486;2023-12-29T02:22:10;100558.53;;;8.82;77.43
9695;BME280;4690;52.422;13.486;2023-12-29T02:24:38;100551.97;;;8.90;76.95
9695;BME280;4690;52.422;13.486;2023-12-29T02:29:56;100546.16;;;8.80;76.86
9695;BME280;4690;52.422;13.486;2023-12-29T02:32:29;100536.00;;;8.87;77.23
9695;BME280;4690;52.422;13.486;2023-12-29T02:34:57;100538.47;;;8.95;76.76
9695;BME280;4690;52.422;13.486;2023-12-29T02:37:26;100536.34;;;8.97;76.53
9695;BME280;4690;52.422;13.486;2023-12-29T02:39:52;100529.06;;;9.16;75.90
9695;BME280;4690;52.422;13.486;2023-12-29T02:42:18;100525.06;;;8.87;76.81
9695;BME280;4690;52.422;13.486;2023-12-29T02:44:44;100523.41;;;8.86;76.80
9695;BME280;4690;52.422;13.486;2023-12-29T02:47:10;100526.38;;;8.84;77.24
9695;BME280;4690;52.422;13.486;2023-12-29T02:49:36;100518.19;;;8.78;77.03
9695;BME280;4690;52.422;13.486;2023-12-29T02:52:01;100515.19;;;8.86;76.68
9695;BME280;4690;52.422;13.486;2023-12-29T02:54:27;100516.84;;;8.87;76.72
9695;BME280;4690;52.422;13.486;2023-12-29T02:56:53;100513.13;;;8.81;76.93
9695;BME280;4690;52.422;13.486;2023-12-29T02:59:19;100513.97;;;8.82;76.78
9695;BME280;4690;52.422;13.486;2023-12-29T03:01:44;100509.56;;;8.81;77.24
9695;BME280;4690;52.422;13.486;2023-12-29T03:04:10;100506.50;;;8.70;77.40
9695;BME280;4690;52.422;13.486;2023-12-29T03:06:36;100503.66;;;8.84;77.14
9695;BME280;4690;52.422;13.486;2023-12-29T03:09:02;100493.44;;;8.72;76.93
9695;BME280;4690;52.422;13.486;2023-12-29T03:11:27;100496.06;;;8.86;76.89
9695;BME280;4690;52.422;13.486;2023-12-29T03:13:53;100491.84;;;8.90;77.12
9695;BME280;4690;52.422;13.486;2023-12-29T03:16:19;100499.75;;;8.73;77.36
9695;BME280;4690;52.422;13.486;2023-12-29T03:18:44;100493.78;;;8.83;76.96
9695;BME280;4690;52.422;13.486;2023-12-29T03:21:10;100490.22;;;8.82;77.20
9695;BME280;4690;52.422;13.486;2023-12-29T03:23:36;100492.94;;;8.82;76.91
9695;BME280;4690;52.422;13.486;2023-12-29T03:26:02;100490.03;;;8.77;77.35
9695;BME280;4690;52.422;13.486;2023-12-29T03:28:28;100494.44;;;8.78;77.24
9695;BME280;4690;52.422;13.486;2023-12-29T03:30:53;100488.41;;;8.69;77.85
9695;BME280;4690;52.422;13.486;2023-12-29T03:33:19;100487.22;;;8.59;78.24
9695;BME280;4690;52.422;13.486;2023-12-29T03:35:45;100488.28;;;8.58;78.45
9695;BME280;4690;52.422;13.486;2023-12-29T03:38:10;100490.84;;;8.52;78.09
9695;BME280;4690;52.422;13.486;2023-12-29T03:40:36;100486.03;;;8.48;78.98
9695;BME280;4690;52.422;13.486;2023-12-29T03:43:02;100487.41;;;8.64;78.08
9695;BME280;4690;52.422;13.486;2023-12-29T03:45:28;100474.81;;;8.63;77.59
9695;BME280;4690;52.422;13.486;2023-12-29T03:47:53;100466.66;;;8.56;77.83
9695;BME280;4690;52.422;13.486;2023-12-29T03:50:19;100470.53;;;8.73;77.81
9695;BME280;4690;52.422;13.486;2023-12-29T03:52:45;100461.09;;;8.94;77.02
9695;BME280;4690;52.422;13.486;2023-12-29T03:55:11;100463.38;;;8.72;77.60
9695;BME280;4690;52.422;13.486;2023-12-29T03:57:36;100467.06;;;8.60;77.99
9695;BME280;4690;52.422;13.486;2023-12-29T04:00:04;100460.09;;;8.64;78.31
9695;BME280;4690;52.422;13.486;2023-12-29T04:02:30;100468.34;;;8.57;77.91
9695;BME280;4690;52.422;13.486;2023-12-29T04:04:55;100466.31;;;8.46;78.75
9695;BME280;4690;52.422;13.486;2023-12-29T04:07:21;100465.06;;;8.42;78.75
9695;BME280;4690;52.422;13.486;2023-12-29T04:09:47;100451.03;;;8.31;79.13
9695;BME280;4690;52.422;13.486;2023-12-29T04:12:12;100441.94;;;8.44;79.11
9695;BME280;4690;52.422;13.486;2023-12-29T04:14:38;100445.69;;;8.50;78.52
9695;BME280;4690;52.422;13.486;2023-12-29T04:17:04;100444.75;;;8.63;77.65
9695;BME280;4690;52.422;13.486;2023-12-29T04:19:40;100444.88;;;8.74;77.34
9695;BME280;4690;52.422;13.486;2023-12-29T04:22:07;100427.31;;;8.64;78.19
9695;BME280;4690;52.422;13.486;2023-12-29T04:24:33;100436.31;;;8.64;77.78
9695;BME280;4690;52.422;13.486;2023-12-29T04:26:59;100428.19;;;8.58;77.42
9695;BME280;4690;52.422;13.486;2023-12-29T04:29:25;100426.59;;;8.75;77.00
9695;BME280;4690;52.422;13.486;2023-12-29T04:31:51;100416.44;;;8.82;76.75
9695;BME280;4690;52.422;13.486;2023-12-29T04:34:17;100423.69;;;8.95;76.66
9695;BME280;4690;52.422;13.486;2023-12-29T04:36:42;100418.06;;;8.90;76.49
9695;BME280;4690;52.422;13.486;2023-12-29T04:39:08;100416.72;;;8.74;77.36
9695;BME280;4690;52.422;13.486;2023-12-29T04:41:35;100416.00;;;8.60;77.94
9695;BME280;4690;52.422;13.486;2023-12-29T04:44:00;100422.56;;;8.78;77.63
9695;BME280;4690;52.422;13.486;2023-12-29T04:46:26;100420.94;;;8.95;77.36
9695;BME280;4690;52.422;13.486;2023-12-29T04:48:52;100417.34;;;9.01;76.26
9695;BME280;4690;52.422;13.486;2023-12-29T04:51:19;100416.09;;;8.97;76.92
9695;BME280;4690;52.422;13.486;2023-12-29T04:53:44;100413.91;;;9.06;76.95
9695;BME280;4690;52.422;13.486;2023-12-29T04:56:10;100406.53;;;9.06;76.73
9695;BME280;4690;52.422;13.486;2023-12-29T04:58:37;100390.28;;;8.93;77.21
9695;BME280;4690;52.422;13.486;2023-12-29T05:01:03;100395.59;;;9.06;76.68
9695;BME280;4690;52.422;13.486;2023-12-29T05:03:28;100396.22;;;9.08;76.98
9695;BME280;4690;52.422;13.486;2023-12-29T05:05:54;100387.53;;;9.18;76.89
9695;BME280;4690;52.422;13.486;2023-12-29T05:08:20;100390.69;;;9.15;76.79
9695;BME280;4690;52.422;13.486;2023-12-29T05:10:46;100383.00;;;9.05;77.00
9695;BME280;4690;52.422;13.486;2023-12-29T05:13:11;100388.28;;;9.25;76.15
9695;BME280;4690;52.422;13.486;2023-12-29T05:15:40;100395.03;;;9.04;76.81
9695;BME280;4690;52.422;13.486;2023-12-29T05:18:06;100389.41;;;9.17;76.47
9695;BME280;4690;52.422;13.486;2023-12-29T05:20:32;100389.78;;;9.39;75.99
9695;BME280;4690;52.422;13.486;2023-12-29T05:22:59;100378.63;;;9.23;76.57
9695;BME280;4690;52.422;13.486;2023-12-29T05:25:24;100387.31;;;9.38;76.27
9695;BME280;4690;52.422;13.486;2023-12-29T05:27:50;100381.50;;;9.28;76.29
9695;BME280;4690;52.422;13.486;2023-12-29T05:30:16;100386.53;;;9.31;75.54
9695;BME280;4690;52.422;13.486;2023-12-29T05:32:42;100383.34;;;9.52;75.50
9695;BME280;4690;52.422;13.486;2023-12-29T05:35:08;100386.91;;;9.34;75.49
9695;BME280;4690;52.422;13.486;2023-12-29T05:37:34;100389.34;;;9.24;75.96
9695;BME280;4690;52.422;13.486;2023-12-29T05:40:00;100389.63;;;9.34;75.85
9695;BME280;4690;52.422;13.486;2023-12-29T05:42:25;100386.00;;;9.40;75.26
9695;BME280;4690;52.422;13.486;2023-12-29T05:44:51;100381.81;;;9.56;74.66
9695;BME280;4690;52.422;13.486;2023-12-29T05:47:18;100381.13;;;9.61;74.34
9695;BME280;4690;52.422;13.486;2023-12-29T05:49:43;100377.25;;;9.50;75.09
9695;BME280;4690;52.422;13.486;2023-12-29T05:52:09;100385.78;;;9.42;74.73
9695;BME280;4690;52.422;13.486;2023-12-29T05:54:35;100378.34;;;9.49;75.17
9695;BME280;4690;52.422;13.486;2023-12-29T05:57:02;100386.59;;;9.61;74.63
9695;BME280;4690;52.422;13.486;2023-12-29T05:59:28;100385.22;;;9.70;74.30
9695;BME280;4690;52.422;13.486;2023-12-29T06:01:53;100389.19;;;9.56;73.94
9695;BME280;4690;52.422;13.486;2023-12-29T06:04:19;100392.78;;;9.38;74.75
9695;BME280;4690;52.422;13.486;2023-12-29T06:06:45;100386.38;;;9.26;75.22
9695;BME280;4690;52.422;13.486;2023-12-29T06:09:11;100380.69;;;9.27;74.83
9695;BME280;4690;52.422;13.486;2023-12-29T06:11:37;100381.44;;;9.34;74.24
9695;BME280;4690;52.422;13.486;2023-12-29T06:14:06;100366.31;;;9.32;74.90
9695;BME280;4690;52.422;13.486;2023-12-29T06:16:32;100364.72;;;9.42;74.15
9695;BME280;4690;52.422;13.486;2023-12-29T06:18:58;100366.63;;;9.60;73.35
9695;BME280;4690;52.422;13.486;2023-12-29T06:21:23;100371.53;;;9.70;72.97
9695;BME280;4690;52.422;13.486;2023-12-29T06:23:49;100361.22;;;9.72;72.93
9695;BME280;4690;52.422;13.486;2023-12-29T06:26:16;100342.06;;;9.54;73.38
9695;BME280;4690;52.422;13.486;2023-12-29T06:28:44;100334.47;;;9.56;73.41
9695;BME280;4690;52.422;13.486;2023-12-29T06:31:10;100320.28;;;9.47;73.81
9695;BME280;4690;52.422;13.486;2023-12-29T06:33:36;100337.88;;;9.51;74.00
9695;BME280;4690;52.422;13.486;2023-12-29T06:36:03;100334.78;;;9.66;73.23
9695;BME280;4690;52.422;13.486;2023-12-29T06:38:29;100347.78;;;9.52;73.82
9695;BME280;4690;52.422;13.486;2023-12-29T06:40:55;100370.09;;;9.68;73.12
9695;BME280;4690;52.422;13.486;2023-12-29T06:43:21;100371.38;;;9.83;72.27
9695;BME280;4690;52.422;13.486;2023-12-29T06:45:47;100387.69;;;9.90;72.13
9695;BME280;4690;52.422;13.486;2023-12-29T06:48:12;100394.59;;;9.93;72.05
9695;BME280;4690;52.422;13.486;2023-12-29T06:50:38;100392.38;;;10.01;72.17
9695;BME280;4690;52.422;13.486;2023-12-29T06:53:04;100385.31;;;9.94;72.21
9695;BME280;4690;52.422;13.486;2023-12-29T06:55:30;100405.34;;;9.94;72.03
9695;BME280;4690;52.422;13.486;2023-12-29T06:57:55;100389.09;;;9.81;72.22
9695;BME280;4690;52.422;13.486;2023-12-29T07:00:21;100387.97;;;10.00;72.06
9695;BME280;4690;52.422;13.486;2023-12-29T07:02:47;100379.97;;;9.99;71.77
9695;BME280;4690;52.422;13.486;2023-12-29T07:05:13;100385.47;;;9.99;71.88
9695;BME280;4690;52.422;13.486;2023-12-29T07:07:39;100396.72;;;9.91;72.43
9695;BME280;4690;52.422;13.486;2023-12-29T07:10:05;100394.28;;;10.01;72.37
9695;BME280;4690;52.422;13.486;2023-12-29T07:12:31;100398.94;;;10.00;71.92
9695;BME280;4690;52.422;13.486;2023-12-29T07:14:57;100402.50;;;10.01;72.17
9695;BME280;4690;52.422;13.486;2023-12-29T07:17:23;100396.88;;;9.96;72.18
9695;BME280;4690;52.422;13.486;2023-12-29T07:19:49;100392.75;;;10.05;71.60
9695;BME280;4690;52.422;13.486;2023-12-29T07:22:15;100398.31;;;9.98;71.73
9695;BME280;4690;52.422;13.486;2023-12-29T07:24:41;100394.31;;;10.13;71.73
9695;BME280;4690;52.422;13.486;2023-12-29T07:27:07;100400.50;;;10.08;71.98
9695;BME280;4690;52.422;13.486;2023-12-29T07:29:34;100393.81;;;10.04;71.86
9695;BME280;4690;52.422;13.486;2023-12-29T07:31:59;100391.03;;;9.92;72.21
9695;BME280;4690;52.422;13.486;2023-12-29T07:34:25;100400.38;;;10.03;72.43
9695;BME280;4690;52.422;13.486;2023-12-29T07:36:51;100396.19;;;10.00;72.61
9695;BME280;4690;52.422;13.486;2023-12-29T07:39:18;100399.13;;;10.17;71.84
9695;BME280;4690;52.422;13.486;2023-12-29T07:41:44;100406.00;;;10.08;72.24
9695;BME280;4690;52.422;13.486;2023-12-29T07:44:13;100409.97;;;10.24;71.53
9695;BME280;4690;52.422;13.486;2023-12-29T07:46:40;100403.94;;;10.03;72.35
9695;BME280;4690;52.422;13.486;2023-12-29T07:49:05;100400.63;;;10.13;71.99
9695;BME280;4690;52.422;13.486;2023-12-29T07:51:31;100405.84;;;10.33;71.26
9695;BME280;4690;52.422;13.486;2023-12-29T07:53:58;100404.66;;;10.29;70.87
9695;BME280;4690;52.422;13.486;2023-12-29T07:56:23;100400.22;;;9.98;71.81
9695;BME280;4690;52.422;13.486;2023-12-29T07:58:49;100406.53;;;9.98;71.84
9695;BME280;4690;52.422;13.486;2023-12-29T08:01:15;100410.03;;;10.05;72.07
9695;BME280;4690;52.422;13.486;2023-12-29T08:03:41;100409.09;;;10.12;71.84
9695;BME280;4690;52.422;13.486;2023-12-29T08:06:06;100409.41;;;10.03;71.79
9695;BME280;4690;52.422;13.486;2023-12-29T08:08:32;100406.09;;;10.13;71.16
9695;BME280;4690;52.422;13.486;2023-12-29T08:10:58;100407.81;;;9.96;71.88
9695;BME280;4690;52.422;13.486;2023-12-29T08:13:23;100410.25;;;10.04;72.18
9695;BME280;4690;52.422;13.486;2023-12-29T08:15:49;100421.44;;;10.02;71.74
9695;BME280;4690;52.422;13.486;2023-12-29T08:18:15;100410.06;;;10.17;71.58
9695;BME280;4690;52.422;13.486;2023-12-29T08:20:41;100418.34;;;10.10;71.69
9695;BME280;4690;52.422;13.486;2023-12-29T08:23:06;100426.84;;;10.21;71.33
9695;BME280;4690;52.422;13.486;2023-12-29T08:25:32;100428.72;;;10.39;70.87
9695;BME280;4690;52.422;13.486;2023-12-29T08:27:58;100425.09;;;10.26;71.29
9695;BME280;4690;52.422;13.486;2023-12-29T08:30:24;100426.38;;;10.24;71.25
9695;BME280;4690;52.422;13.486;2023-12-29T08:32:50;100419.44;;;10.09;72.02
9695;BME280;4690;52.422;13.486;2023-12-29T08:35:15;100403.75;;;10.17;71.42
9695;BME280;4690;52.422;13.486;2023-12-29T08:37:41;100416.97;;;10.20;71.40
9695;BME280;4690;52.422;13.486;2023-12-29T08:40:07;100421.09;;;10.10;72.05
9695;BME280;4690;52.422;13.486;2023-12-29T08:42:33;100421.22;;;10.34;71.66
9695;BME280;4690;52.422;13.486;2023-12-29T08:44:59;100427.81;;;10.45;71.07
9695;BME280;4690;52.422;13.486;2023-12-29T08:47:26;100430.06;;;10.36;70.70
9695;BME280;4690;52.422;13.486;2023-12-29T08:49:51;100443.53;;;10.49;70.47
9695;BME280;4690;52.422;13.486;2023-12-29T08:52:20;100434.75;;;10.59;71.03
9695;BME280;4690;52.422;13.486;2023-12-29T08:54:46;100426.91;;;10.63;70.54
9695;BME280;4690;52.422;13.486;2023-12-29T08:57:12;100435.81;;;10.58;70.40
9695;BME280;4690;52.422;13.486;2023-12-29T08:59:38;100435.13;;;10.63;70.27
9695;BME280;4690;52.422;13.486;2023-12-29T09:02:04;100420.09;;;10.53;70.64
9695;BME280;4690;52.422;13.486;2023-12-29T09:04:30;100432.00;;;10.47;70.61
9695;BME280;4690;52.422;13.486;2023-12-29T09:06:55;100423.16;;;10.45;70.86
9695;BME280;4690;52.422;13.486;2023-12-29T09:09:21;100431.63;;;10.55;70.89
9695;BME280;4690;52.422;13.486;2023-12-29T09:11:47;100421.56;;;10.68;70.11
9695;BME280;4690;52.422;13.486;2023-12-29T09:14:13;100430.19;;;10.53;71.03
9695;BME280;4690;52.422;13.486;2023-12-29T09:16:39;100443.34;;;10.74;70.38
9695;BME280;4690;52.422;13.486;2023-12-29T09:19:06;100439.59;;;10.99;69.72
9695;BME280;4690;52.422;13.486;2023-12-29T09:21:32;100429.78;;;11.03;69.28
9695;BME280;4690;52.422;13.486;2023-12-29T09:23:57;100427.31;;;11.02;69.03
9695;BME280;4690;52.422;13.486;2023-12-29T09:26:24;100428.63;;;10.99;69.26
9695;BME280;4690;52.422;13.486;2023-12-29T09:28:49;100431.72;;;11.14;69.18
9695;BME280;4690;52.422;13.486;2023-12-29T09:31:15;100444.81;;;11.00;69.25
9695;BME280;4690;52.422;13.486;2023-12-29T09:33:41;100437.53;;;11.06;69.14
9695;BME280;4690;52.422;13.486;2023-12-29T09:36:07;100437.44;;;11.13;69.30
9695;BME280;4690;52.422;13.486;2023-12-29T09:38:33;100424.44;;;11.32;68.59
9695;BME280;4690;52.422;13.486;2023-12-29T09:41:04;100417.53;;;11.29;68.32
9695;BME280;4690;52.422;13.486;2023-12-29T09:43:32;100432.41;;;11.45;68.33
9695;BME280;4690;52.422;13.486;2023-12-29T09:45:59;100426.94;;;11.33;68.06
9695;BME280;4690;52.422;13.486;2023-12-29T09:48:27;100410.72;;;11.43;67.84
9695;BME280;4690;52.422;13.486;2023-12-29T09:50:54;100425.72;;;11.53;68.04
9695;BME280;4690;52.422;13.486;2023-12-29T09:53:24;100429.31;;;11.53;67.50
9695;BME280;4690;52.422;13.486;2023-12-29T09:55:51;100419.25;;;11.71;67.13
9695;BME280;4690;52.422;13.486;2023-12-29T09:58:21;100416.69;;;11.93;66.65
9695;BME280;4690;52.422;13.486;2023-12-29T10:00:49;100415.06;;;11.80;66.52
9695;BME280;4690;52.422;13.486;2023-12-29T10:03:15;100424.47;;;11.84;66.60
9695;BME280;4690;52.422;13.486;2023-12-29T10:05:42;100420.28;;;11.93;66.16
9695;BME280;4690;52.422;13.486;2023-12-29T10:08:10;100422.81;;;11.83;65.56
9695;BME280;4690;52.422;13.486;2023-12-29T10:10:39;100429.25;;;11.77;65.93
9695;BME280;4690;52.422;13.486;2023-12-29T10:13:11;100422.72;;;11.54;66.65
9695;BME280;4690;52.422;13.486;2023-12-29T10:15:56;100415.78;;;11.75;66.48
9695;BME280;4690;52.422;13.486;2023-12-29T10:21:35;100406.84;;;11.68;66.74
9695;BME280;4690;52.422;13.486;2023-12-29T10:24:10;100409.56;;;11.80;66.66
9695;BME280;4690;52.422;13.486;2023-12-29T10:26:39;100409.09;;;11.83;66.46
9695;BME280;4690;52.422;13.486;2023-12-29T10:29:06;100408.81;;;11.96;65.83
9695;BME280;4690;52.422;13.486;2023-12-29T10:31:32;100396.81;;;12.14;65.11
9695;BME280;4690;52.422;13.486;2023-12-29T10:36:49;100376.44;;;12.27;64.60
9695;BME280;4690;52.422;13.486;2023-12-29T10:39:15;100379.56;;;12.19;65.00
9695;BME280;4690;52.422;13.486;2023-12-29T10:41:41;100378.63;;;12.13;64.94
9695;BME280;4690;52.422;13.486;2023-12-29T10:44:08;100380.59;;;12.29;64.92
9695;BME280;4690;52.422;13.486;2023-12-29T10:46:34;100382.72;;;12.39;64.46
9695;BME280;4690;52.422;13.486;2023-12-29T10:49:13;100392.94;;;12.44;64.22
9695;BME280;4690;52.422;13.486;2023-12-29T10:51:40;100392.69;;;12.45;63.56
9695;BME280;4690;52.422;13.486;2023-12-29T10:54:06;100410.88;;;12.18;64.76
9695;BME280;4690;52.422;13.486;2023-12-29T10:56:33;100399.09;;;12.34;64.73
9695;BME280;4690;52.422;13.486;2023-12-29T10:59:04;100391.50;;;12.24;65.09
9695;BME280;4690;52.422;13.486;2023-12-29T11:01:35;100384.16;;;12.30;64.91
9695;BME280;4690;52.422;13.486;2023-12-29T11:04:03;100396.34;;;12.34;63.81
9695;BME280;4690;52.422;13.486;2023-12-29T11:06:43;100410.19;;;12.39;63.84
9695;BME280;4690;52.422;13.486;2023-12-29T11:09:12;100409.78;;;12.47;63.29
9695;BME280;4690;52.422;13.486;2023-12-29T11:11:38;100412.25;;;12.32;64.87
9695;BME280;4690;52.422;13.486;2023-12-29T11:14:04;100410.28;;;12.16;64.65
9695;BME280;4690;52.422;13.486;2023-12-29T11:16:31;100415.66;;;12.10;64.88
9695;BME280;4690;52.422;13.486;2023-12-29T11:19:01;100407.41;;;12.22;65.38
9695;BME280;4690;52.422;13.486;2023-12-29T11:21:29;100398.41;;;12.27;64.79
9695;BME280;4690;52.422;13.486;2023-12-29T11:23:56;100412.91;;;12.22;64.75
9695;BME280;4690;52.422;13.486;2023-12-29T11:26:22;100416.66;;;12.33;64.43
9695;BME280;4690;52.422;13.486;2023-12-29T11:28:49;100402.81;;;12.11;65.14
9695;BME280;4690;52.422;13.486;2023-12-29T11:31:19;100397.81;;;11.96;65.02
9695;BME280;4690;52.422;13.486;2023-12-29T11:34:47;100390.88;;;12.05;65.67
9695;BME280;4690;52.422;13.486;2023-12-29T11:37:11;100385.81;;;12.14;65.00
9695;BME280;4690;52.422;13.486;2023-12-29T11:40:14;100378.16;;;12.16;64.48
9695;BME280;4690;52.422;13.486;2023-12-29T11:42:49;100368.03;;;12.17;65.08
9695;BME280;4690;52.422;13.486;2023-12-29T11:45:44;100386.75;;;11.79;66.76
9695;BME280;4690;52.422;13.486;2023-12-29T11:48:11;100383.97;;;12.03;66.07
9695;BME280;4690;52.422;13.486;2023-12-29T11:50:40;100387.09;;;11.95;66.35
9695;BME280;4690;52.422;13.486;2023-12-29T11:53:07;100366.44;;;11.92;66.50
9695;BME280;4690;52.422;13.486;2023-12-29T11:55:38;100362.81;;;12.03;66.37
9695;BME280;4690;52.422;13.486;2023-12-29T11:58:24;100381.50;;;12.18;65.86
9695;BME280;4690;52.422;13.486;2023-12-29T12:00:50;100375.91;;;12.13;66.16
9695;BME280;4690;52.422;13.486;2023-12-29T12:03:25;100357.16;;;11.81;67.06
9695;BME280;4690;52.422;13.486;2023-12-29T12:05:53;100369.63;;;12.01;66.72
9695;BME280;4690;52.422;13.486;2023-12-29T12:10:56;100370.22;;;12.03;66.65
9695;BME280;4690;52.422;13.486;2023-12-29T12:13:43;100368.06;;;12.05;66.45
9695;BME280;4690;52.422;13.486;2023-12-29T12:19:08;100363.44;;;11.94;66.46
9695;BME280;4690;52.422;13.486;2023-12-29T12:21:35;100366.81;;;12.13;66.65
9695;BME280;4690;52.422;13.486;2023-12-29T12:24:04;100374.03;;;12.02;67.00
9695;BME280;4690;52.422;13.486;2023-12-29T12:26:34;100380.72;;;12.06;66.87
9695;BME280;4690;52.422;13.486;2023-12-29T12:29:00;100378.56;;;12.08;67.14
9695;BME280;4690;52.422;13.486;2023-12-29T12:31:26;100360.66;;;12.05;67.74
9695;BME280;4690;52.422;13.486;2023-12-29T12:33:56;100337.81;;;11.76;68.81
9695;BME280;4690;52.422;13.486;2023-12-29T12:36:25;100357.72;;;11.43;70.07
9695;BME280;4690;52.422;13.486;2023-12-29T12:38:57;100369.69;;;11.37;69.76
9695;BME280;4690;52.422;13.486;2023-12-29T12:41:25;100361.41;;;11.49;69.94
9695;BME280;4690;52.422;13.486;2023-12-29T12:46:25;100356.38;;;11.69;69.61
9695;BME280;4690;52.422;13.486;2023-12-29T12:48:52;100348.81;;;11.76;68.52
9695;BME280;4690;52.422;13.486;2023-12-29T12:51:21;100350.31;;;11.96;68.22
9695;BME280;4690;52.422;13.486;2023-12-29T12:53:47;100361.53;;;11.54;69.90
9695;BME280;4690;52.422;13.486;2023-12-29T12:56:16;100356.63;;;11.56;69.96
9695;BME280;4690;52.422;13.486;2023-12-29T12:58:42;100358.28;;;11.57;70.63
9695;BME280;4690;52.422;13.486;2023-12-29T13:01:08;100338.41;;;11.50;71.37
9695;BME280;4690;52.422;13.486;2023-12-29T13:03:38;100334.31;;;11.64;71.82
9695;BME280;4690;52.422;13.486;2023-12-29T13:06:04;100333.69;;;11.62;71.93
9695;BME280;4690;52.422;13.486;2023-12-29T13:08:32;100337.19;;;11.57;72.11
9695;BME280;4690;52.422;13.486;2023-12-29T13:10:59;100336.91;;;11.30;72.86
9695;BME280;4690;52.422;13.486;2023-12-29T13:13:42;100329.84;;;11.34;72.55
9695;BME280;4690;52.422;13.486;2023-12-29T13:16:08;100325.44;;;11.33;72.65
9695;BME280;4690;52.422;13.486;2023-12-29T13:18:35;100327.22;;;11.39;72.14
9695;BME280;4690;52.422;13.486;2023-12-29T13:21:02;100329.13;;;11.39;72.08
9695;BME280;4690;52.422;13.486;2023-12-29T13:23:28;100333.53;;;11.40;72.28
9695;BME280;4690;52.422;13.486;2023-12-29T13:25:59;100337.09;;;11.52;71.78
9695;BME280;4690;52.422;13.486;2023-12-29T13:28:28;100330.97;;;11.62;71.29
9695;BME280;4690;52.422;13.486;2023-12-29T13:30:56;100323.31;;;11.64;70.98